Time;durP1;ratioP1;P1;durP2;ratioP2;P2;SDS_P1;SDS_P2;PMS_P1;PMS_P2;Temp;Humidity;BMP_temperature;BMP_pressure;BME280_temperature;BME280_humidity;BME280_pressure;Samples;Min_cycle;Max_cycle;Signal;HPM_P1;HPM_P2
2022/07/14 00:00:20;;;;;;;;;;;24.20;90.70;;;;;;5038220;28;20355;-50
2022/07/14 00:02:49;;;;;;;;;;;24.20;90.30;;;;;;5028529;28;19925;-50
2022/07/14 00:05:17;;;;;;;;;;;24.10;90.20;;;;;;5029044;28;19932;-51
2022/07/14 00:07:44;;;;;;;;;;;24.00;90.40;;;;;;5028002;28;20343;-51
2022/07/14 00:10:16;;;;;;;;;;;24.00;90.30;;;;;;5028475;28;19925;-51
2022/07/14 00:12:46;;;;;;;;;;;24.00;90.70;;;;;;5028432;28;19933;-51
2022/07/14 00:15:16;;;;;;;;;;;23.90;90.10;;;;;;5040186;28;19925;-50
2022/07/14 00:17:45;;;;;;;;;;;23.90;90.60;;;;;;5042024;28;19921;-46
2022/07/14 00:20:12;;;;;;;;;;;23.80;90.50;;;;;;5027163;28;20048;-46
2022/07/14 00:22:44;;;;;;;;;;;23.80;90.30;;;;;;5028129;28;20002;-46
2022/07/14 00:25:14;;;;;;;;;;;23.80;90.40;;;;;;5028392;28;20391;-46
2022/07/14 00:27:41;;;;;;;;;;;23.70;90.40;;;;;;5027192;28;19976;-46
2022/07/14 00:30:11;;;;;;;;;;;23.70;90.50;;;;;;5036954;28;19970;-46
2022/07/14 00:32:41;;;;;;;;;;;23.70;90.40;;;;;;5047178;28;19956;-50
2022/07/14 00:35:11;;;;;;;;;;;23.70;90.50;;;;;;5047437;28;19921;-50
2022/07/14 00:37:41;;;;;;;;;;;23.70;90.40;;;;;;5047541;28;19928;-49
2022/07/14 00:40:09;;;;;;;;;;;23.60;90.50;;;;;;5048530;28;19920;-49
2022/07/14 00:42:37;;;;;;;;;;;23.70;90.50;;;;;;5052192;28;19920;-49
2022/07/14 00:45:11;;;;;;;;;;;23.70;90.90;;;;;;5051473;28;19925;-49
2022/07/14 00:47:44;;;;;;;;;;;23.60;90.80;;;;;;5050547;28;20015;-49
2022/07/14 00:50:12;;;;;;;;;;;23.60;90.60;;;;;;5030944;28;20008;-49
2022/07/14 00:52:42;;;;;;;;;;;23.50;90.60;;;;;;5045692;28;19998;-49
2022/07/14 00:55:10;;;;;;;;;;;23.50;90.50;;;;;;5050481;28;19929;-49
2022/07/14 00:57:38;;;;;;;;;;;23.50;90.60;;;;;;5040070;28;20405;-50
2022/07/14 01:00:09;;;;;;;;;;;23.40;90.50;;;;;;5033616;28;20011;-49
2022/07/14 01:02:39;;;;;;;;;;;23.40;90.50;;;;;;5030475;28;19971;-49
2022/07/14 01:05:06;;;;;;;;;;;23.40;90.70;;;;;;5032361;28;19976;-49
2022/07/14 01:07:36;;;;;;;;;;;23.40;90.70;;;;;;5029802;28;20338;-49
2022/07/14 01:10:03;;;;;;;;;;;23.40;90.70;;;;;;5030857;28;20400;-49
2022/07/14 01:12:31;;;;;;;;;;;23.40;90.80;;;;;;5032017;28;19964;-49
2022/07/14 01:14:59;;;;;;;;;;;23.40;90.30;;;;;;5033256;28;19932;-49
2022/07/14 01:17:28;;;;;;;;;;;23.40;90.70;;;;;;5030344;28;20015;-49
2022/07/14 01:19:55;;;;;;;;;;;23.40;90.90;;;;;;5032793;28;20315;-49
2022/07/14 01:22:25;;;;;;;8.25;3.10;;;23.30;90.80;;;;;;5030401;28;20404;-49
2022/07/14 01:24:52;;;;;;;9.52;2.67;;;23.50;91.20;;;;;;5033115;28;20204;-49
2022/07/14 01:27:22;;;;;;;6.25;2.38;;;23.50;91.20;;;;;;5032240;28;20298;-49
2022/07/14 01:29:51;;;;;;;7.32;2.78;;;23.50;91.10;;;;;;5038656;28;20536;-51
2022/07/14 01:32:19;;;;;;;5.93;2.40;;;23.50;91.10;;;;;;5050193;28;20726;-51
2022/07/14 01:34:48;;;;;;;6.72;2.55;;;23.40;91.20;;;;;;5049124;28;20295;-50
2022/07/14 01:37:15;;;;;;;7.18;2.40;;;23.40;91.10;;;;;;5049125;28;20200;-51
2022/07/14 01:39:45;;;;;;;5.60;2.63;;;23.40;91.10;;;;;;5049723;28;20568;-50
2022/07/14 01:42:13;;;;;;;8.75;2.63;;;23.40;91.30;;;;;;5048423;28;20224;-49
2022/07/14 01:44:40;;;;;;;8.98;2.45;;;23.40;91.30;;;;;;5030068;28;20713;-45
2022/07/14 01:47:07;;;;;;;8.00;2.72;;;23.40;91.30;;;;;;5030441;28;20213;-47
2022/07/14 01:49:38;;;;;;;8.35;2.60;;;23.40;91.20;;;;;;5030002;28;20227;-44
2022/07/14 01:52:06;;;;;;;6.20;2.40;;;23.40;91.30;;;;;;5027469;28;20235;-45
2022/07/14 01:54:33;;;;;;;8.57;2.50;;;23.30;91.30;;;;;;5030320;28;20205;-46
2022/07/14 01:57:00;;;;;;;6.47;2.95;;;23.30;91.40;;;;;;5030705;28;20583;-49
2022/07/14 01:59:27;;;;;;;7.43;2.53;;;23.30;91.70;;;;;;5031945;28;20255;-49
2022/07/14 02:01:55;;;;;;;6.15;2.53;;;23.20;91.50;;;;;;5058879;28;20621;-50
2022/07/14 02:04:22;;;;;;;7.38;3.25;;;23.20;91.50;;;;;;5041212;28;20282;-49
2022/07/14 02:06:52;;;;;;;9.98;2.97;;;23.20;91.60;;;;;;5029520;28;20221;-51
2022/07/14 02:09:22;;;;;;;18.65;3.00;;;23.20;91.60;;;;;;5030019;28;20211;-50
2022/07/14 02:14:35;;;;;;;4.97;2.40;;;23.20;91.90;;;;;;5043985;28;20216;-50
2022/07/14 02:17:02;;;;;;;8.18;2.60;;;23.20;91.60;;;;;;5040575;28;20229;-50
2022/07/14 02:19:29;;;;;;;7.40;2.65;;;23.20;91.80;;;;;;5029836;28;20232;-49
2022/07/14 02:21:59;;;;;;;5.38;2.33;;;23.20;92.00;;;;;;5028200;28;20200;-50
2022/07/14 02:24:29;;;;;;;5.63;2.70;;;23.20;92.00;;;;;;5029873;28;20325;-49
2022/07/14 02:26:56;;;;;;;7.75;3.20;;;23.10;91.80;;;;;;5029484;28;20741;-46
2022/07/14 02:29:23;;;;;;;7.75;2.58;;;23.10;92.00;;;;;;5029537;28;20299;-45
2022/07/14 02:31:50;;;;;;;8.40;3.03;;;23.10;92.00;;;;;;5044197;28;20231;-47
2022/07/14 02:34:21;;;;;;;7.95;3.13;;;23.00;92.00;;;;;;5036528;28;20303;-46
2022/07/14 02:36:48;;;;;;;6.00;2.60;;;23.00;92.00;;;;;;5028757;28;20201;-47
2022/07/14 02:39:15;;;;;;;7.78;2.90;;;22.90;92.10;;;;;;5033195;28;20663;-46
2022/07/14 02:41:43;;;;;;;7.18;2.70;;;22.90;92.10;;;;;;5047685;28;20211;-46
2022/07/14 02:44:12;;;;;;;9.07;3.00;;;22.90;92.20;;;;;;5049598;28;20212;-46
2022/07/14 02:46:42;;;;;;;6.82;2.97;;;22.80;92.10;;;;;;5048656;28;20262;-46
2022/07/14 02:49:12;;;;;;;5.18;2.63;;;22.80;92.20;;;;;;5028443;28;20666;-46
2022/07/14 02:51:39;;;;;;;6.00;2.88;;;22.80;92.10;;;;;;5042344;28;20319;-45
2022/07/14 02:54:06;;;;;;;9.07;2.85;;;22.80;92.30;;;;;;5048848;28;20204;-46
2022/07/14 02:56:36;;;;;;;7.18;2.47;;;22.70;92.20;;;;;;5048729;28;20212;-45
2022/07/14 02:59:07;;;;;;;5.95;2.60;;;22.70;92.40;;;;;;5048536;28;20327;-46
2022/07/14 03:01:35;;;;;;;6.78;3.03;;;22.70;92.40;;;;;;5066692;28;20290;-46
2022/07/14 03:04:02;;;;;;;10.60;2.95;;;22.70;92.40;;;;;;5062527;28;20718;-46
2022/07/14 03:06:30;;;;;;;8.45;2.85;;;22.70;92.60;;;;;;5027325;28;20217;-46
2022/07/14 03:08:59;;;;;;;6.15;2.45;;;22.60;92.60;;;;;;5044089;28;20261;-47
2022/07/14 03:11:29;;;;;;;11.30;3.47;;;22.60;92.70;;;;;;5040929;28;20311;-46
2022/07/14 03:13:56;;;;;;;6.53;2.88;;;22.60;92.60;;;;;;5029002;28;20733;-47
2022/07/14 03:16:25;;;;;;;6.85;3.05;;;22.60;92.50;;;;;;5028719;28;20750;-47
2022/07/14 03:18:57;;;;;;;8.65;3.22;;;22.60;92.70;;;;;;5028743;28;20197;-46
2022/07/14 03:21:25;;;;;;;8.50;3.33;;;22.60;92.80;;;;;;5032928;28;20204;-46
2022/07/14 03:23:52;;;;;;;6.70;3.05;;;22.60;92.80;;;;;;5048646;28;20211;-46
2022/07/14 03:26:21;;;;;;;7.45;3.20;;;22.50;92.70;;;;;;5027741;28;20217;-46
2022/07/14 03:28:51;;;;;;;7.47;3.33;;;22.50;92.80;;;;;;5028710;28;20209;-47
2022/07/14 03:31:18;;;;;;;8.73;3.58;;;22.50;92.80;;;;;;5026345;28;20221;-47
2022/07/14 03:33:46;;;;;;;6.35;2.70;;;22.50;92.80;;;;;;5043612;28;20211;-47
2022/07/14 03:36:13;;;;;;;9.07;3.05;;;22.40;92.70;;;;;;5027875;28;20205;-47
2022/07/14 03:38:40;;;;;;;7.75;3.40;;;22.40;92.80;;;;;;5039792;28;20292;-46
2022/07/14 03:41:08;;;;;;;5.65;2.83;;;22.40;92.90;;;;;;5029299;28;20553;-46
2022/07/14 03:43:35;;;;;;;7.47;3.17;;;22.30;93.30;;;;;;5048405;28;20242;-49
2022/07/14 03:46:03;;;;;;;7.18;2.95;;;22.30;93.10;;;;;;5047715;28;20215;-49
2022/07/14 03:48:34;;;;;;;7.72;3.38;;;22.20;92.80;;;;;;5048070;28;20266;-49
2022/07/14 03:51:01;;;;;;;7.45;3.25;;;22.20;93.00;;;;;;5048021;28;20232;-49
2022/07/14 03:53:32;;;;;;;6.30;3.13;;;22.20;93.00;;;;;;5047992;28;20314;-49
2022/07/14 03:56:00;;;;;;;7.13;3.35;;;22.10;93.10;;;;;;5047251;28;20290;-49
2022/07/14 03:58:27;;;;;;;8.05;3.58;;;22.10;93.10;;;;;;5044033;28;20251;-49
2022/07/14 04:00:55;;;;;;;8.35;3.70;;;22.10;93.10;;;;;;5050778;28;20212;-49
2022/07/14 04:03:30;;;;;;;7.15;3.42;;;22.10;93.20;;;;;;5048272;28;20257;-49
2022/07/14 04:06:02;;;;;;;9.10;3.10;;;22.10;93.20;;;;;;5047964;28;20196;-48
2022/07/14 04:08:29;;;;;;;6.97;3.40;;;22.10;93.20;;;;;;5047665;28;20220;-49
2022/07/14 04:10:57;;;;;;;7.53;3.67;;;22.20;93.30;;;;;;5030950;28;20217;-49
2022/07/14 04:13:24;;;;;;;7.20;2.63;;;22.20;93.20;;;;;;5028387;28;20229;-49
2022/07/14 04:15:52;;;;;;;7.35;2.80;;;22.10;93.20;;;;;;5037889;28;20210;-49
2022/07/14 04:18:19;;;;;;;4.97;3.03;;;22.10;93.10;;;;;;5051771;28;20239;-48
2022/07/14 04:20:49;;;;;;;7.60;3.25;;;22.10;93.10;;;;;;5050398;28;20662;-49
2022/07/14 04:23:19;;;;;;;11.95;2.90;;;22.10;93.20;;;;;;5040128;28;20228;-48
2022/07/14 04:25:47;;;;;;;8.25;3.10;;;22.10;93.30;;;;;;5046496;28;20216;-48
2022/07/14 04:28:17;;;;;;;7.75;2.78;;;22.10;93.20;;;;;;5031825;28;20209;-48
2022/07/14 04:30:45;;;;;;;7.65;2.78;;;22.10;93.30;;;;;;5035157;28;20225;-49
2022/07/14 04:33:14;;;;;;;6.88;2.78;;;22.10;93.20;;;;;;5032188;28;20679;-49
2022/07/14 04:35:44;;;;;;;5.95;2.83;;;22.10;93.20;;;;;;5031727;28;20228;-49
2022/07/14 04:38:13;;;;;;;6.85;2.67;;;22.10;93.30;;;;;;5029726;28;20224;-49
2022/07/14 04:40:52;;;;;;;7.60;3.05;;;22.10;93.40;;;;;;5031674;28;20235;-49
2022/07/14 04:43:19;;;;;;;6.95;2.83;;;22.10;93.40;;;;;;5035645;28;20192;-46
2022/07/14 04:45:46;;;;;;;8.65;2.72;;;22.00;93.20;;;;;;5050697;28;20216;-46
2022/07/14 04:48:14;;;;;;;6.97;2.50;;;22.00;93.10;;;;;;5051388;28;20617;-46
2022/07/14 04:53:29;;;;;;;6.53;2.78;;;22.00;93.30;;;;;;5031003;28;20229;-49
2022/07/14 04:55:59;;;;;;;6.28;2.60;;;22.00;93.20;;;;;;5031483;28;20699;-49
2022/07/14 04:58:26;;;;;;;7.53;2.53;;;22.00;93.30;;;;;;5031117;28;20287;-49
2022/07/14 05:00:58;;;;;;;5.28;2.40;;;22.00;93.30;;;;;;5045089;28;20687;-49
2022/07/14 05:03:26;;;;;;;9.50;2.50;;;22.00;93.40;;;;;;5031679;28;20294;-49
2022/07/14 05:05:54;;;;;;;6.85;2.75;;;22.00;93.40;;;;;;5029912;28;20618;-49
2022/07/14 05:08:23;;;;;;;13.52;4.40;;;22.00;93.40;;;;;;5030711;28;20213;-48
2022/07/14 05:10:50;;;;;;;7.97;3.08;;;22.00;93.40;;;;;;5029498;28;20241;-49
2022/07/14 05:13:18;;;;;;;5.97;3.00;;;22.10;93.50;;;;;;5031042;28;20212;-49
2022/07/14 05:15:50;;;;;;;10.57;3.60;;;22.10;93.40;;;;;;5030236;28;20211;-48
2022/07/14 05:18:17;;;;;;;8.77;3.05;;;22.10;93.50;;;;;;5029416;28;20224;-49
2022/07/14 05:20:44;;;;;;;9.18;3.33;;;22.10;93.50;;;;;;5030758;28;20571;-48
2022/07/14 05:23:18;;;;;;;6.95;3.20;;;22.10;93.50;;;;;;5030196;28;20895;-48
2022/07/14 05:25:49;;;;;;;7.20;2.80;;;22.10;93.60;;;;;;5030331;28;20763;-48
2022/07/14 05:28:18;;;;;;;12.00;3.60;;;22.00;93.50;;;;;;5030227;28;20288;-48
2022/07/14 05:30:49;;;;;;;10.75;3.55;;;22.00;93.50;;;;;;5030719;28;20610;-46
2022/07/14 05:33:18;;;;;;;10.20;3.47;;;22.00;93.50;;;;;;5040557;28;20201;-47
2022/07/14 05:35:47;;;;;;;6.60;3.65;;;22.00;93.50;;;;;;5029506;28;20193;-48
2022/07/14 05:38:15;;;;;;;7.35;3.63;;;22.00;93.60;;;;;;5030420;28;20224;-48
2022/07/14 05:40:42;;;;;;;8.70;3.60;;;22.10;93.70;;;;;;5029440;28;20679;-46
2022/07/14 05:43:11;;;;;;;8.18;3.60;;;22.10;93.70;;;;;;5030363;28;20639;-47
2022/07/14 05:45:38;;;;;;;9.57;4.63;;;22.10;93.70;;;;;;5034911;28;20213;-47
2022/07/14 05:48:05;;;;;;;7.55;4.28;;;22.00;93.60;;;;;;5030254;28;20220;-47
2022/07/14 05:50:33;;;;;;;10.30;4.47;;;22.00;93.60;;;;;;5028885;28;20201;-46
2022/07/14 05:53:00;;;;;;;8.90;4.25;;;22.00;93.70;;;;;;5029745;28;20229;-47
2022/07/14 05:55:27;;;;;;;9.68;4.22;;;22.10;93.70;;;;;;5029786;28;20224;-46
2022/07/14 05:57:55;;;;;;;11.10;4.40;;;22.10;93.70;;;;;;5030046;28;20586;-46
2022/07/14 06:00:22;;;;;;;8.82;4.43;;;22.10;93.80;;;;;;5037261;28;20749;-48
2022/07/14 06:02:49;;;;;;;10.60;4.20;;;22.10;93.90;;;;;;5030003;28;20212;-48
2022/07/14 06:05:23;;;;;;;9.45;4.18;;;22.10;93.70;;;;;;5030092;28;20247;-48
2022/07/14 06:07:50;;;;;;;10.80;4.82;;;22.10;93.70;;;;;;5029473;28;20587;-46
2022/07/14 06:10:17;;;;;;;13.23;5.30;;;22.10;93.80;;;;;;5029695;28;20275;-47
2022/07/14 06:12:47;;;;;;;13.13;4.40;;;22.10;93.70;;;;;;5030398;28;20290;-46
2022/07/14 06:15:16;;;;;;;7.22;3.95;;;22.10;93.80;;;;;;5038209;28;20243;-46
2022/07/14 06:17:44;;;;;;;10.68;4.40;;;22.10;93.70;;;;;;5049812;28;20254;-46
2022/07/14 06:20:18;;;;;;;16.52;4.90;;;22.10;93.80;;;;;;5050058;28;20591;-48
2022/07/14 06:22:49;;;;;;;14.60;5.05;;;22.10;93.90;;;;;;5049381;28;20215;-48
2022/07/14 06:25:16;;;;;;;8.93;4.35;;;22.10;93.90;;;;;;5049275;28;20235;-47
2022/07/14 06:27:44;;;;;;;9.32;4.20;;;22.10;93.80;;;;;;5031768;28;20232;-47
2022/07/14 06:30:16;;;;;;;11.20;3.97;;;22.20;94.00;;;;;;5048691;28;20301;-47
2022/07/14 06:32:46;;;;;;;10.35;4.00;;;22.20;94.00;;;;;;5043006;28;20734;-47
2022/07/14 06:35:13;;;;;;;7.78;3.42;;;22.20;94.00;;;;;;5036567;28;20298;-47
2022/07/14 06:37:43;;;;;;;13.20;4.13;;;22.20;93.90;;;;;;5033116;28;20205;-47
2022/07/14 06:40:10;;;;;;;11.10;4.32;;;22.30;94.00;;;;;;5028017;28;20565;-48
2022/07/14 06:42:37;;;;;;;9.10;3.90;;;22.40;94.10;;;;;;5027899;28;20225;-48
2022/07/14 06:45:05;;;;;;;8.75;3.53;;;22.40;94.10;;;;;;5029116;28;20217;-48
2022/07/14 06:47:33;;;;;;;7.72;3.33;;;22.50;94.10;;;;;;5027607;28;20295;-47
2022/07/14 06:50:00;;;;;;;9.13;3.05;;;22.50;94.20;;;;;;5028314;28;20788;-48
2022/07/14 06:52:28;;;;;;;7.43;3.00;;;22.50;94.10;;;;;;5028622;28;20765;-48
2022/07/14 06:54:58;;;;;;;9.95;3.15;;;22.60;94.10;;;;;;5029092;28;20219;-50
2022/07/14 06:57:26;;;;;;;11.50;3.13;;;22.60;94.20;;;;;;5028681;28;20213;-48
2022/07/14 06:59:54;;;;;;;11.38;3.22;;;22.60;94.20;;;;;;5037151;28;20192;-49
2022/07/14 07:02:22;;;;;;;13.93;7.00;;;22.60;94.10;;;;;;5054911;28;20290;-50
2022/07/14 07:07:38;;;;;;;10.85;5.72;;;22.70;94.20;;;;;;5028789;28;20694;-48
2022/07/14 07:10:06;;;;;;;27.63;19.15;;;22.70;94.30;;;;;;5028659;28;20584;-49
2022/07/14 07:12:38;;;;;;;29.63;17.05;;;22.80;94.30;;;;;;5028911;28;20220;-49
2022/07/14 07:15:08;;;;;;;10.63;5.13;;;22.90;94.40;;;;;;5028327;28;20216;-49
2022/07/14 07:17:40;;;;;;;8.52;3.42;;;22.90;94.40;;;;;;5028943;28;20288;-48
2022/07/14 07:20:10;;;;;;;10.32;2.97;;;23.00;94.40;;;;;;5039984;28;20203;-49
2022/07/14 07:22:40;;;;;;;5.60;2.65;;;23.10;94.40;;;;;;5041253;28;20209;-48
2022/07/14 07:25:08;;;;;;;11.40;2.35;;;23.10;94.30;;;;;;5026854;28;20625;-48
2022/07/14 07:27:35;;;;;;;7.20;2.10;;;23.10;94.20;;;;;;5027187;28;20561;-50
2022/07/14 07:30:03;;;;;;;10.88;2.60;;;23.20;94.20;;;;;;5027866;28;20275;-49
2022/07/14 07:32:30;;;;;;;12.48;2.90;;;23.20;94.10;;;;;;5036645;28;20227;-48
2022/07/14 07:35:00;;;;;;;7.93;2.67;;;23.20;94.10;;;;;;5047006;28;20200;-49
2022/07/14 07:37:30;;;;;;;8.23;2.60;;;23.20;94.20;;;;;;5047180;28;20271;-49
2022/07/14 07:40:00;;;;;;;13.80;5.40;;;23.20;94.20;;;;;;5039241;28;20228;-48
2022/07/14 07:42:28;;;;;;;30.50;22.17;;;23.20;94.20;;;;;;5038524;28;20401;-49
2022/07/14 07:45:00;;;;;;;21.52;10.65;;;23.50;94.30;;;;;;5025597;28;20398;-47
2022/07/14 07:47:28;;;;;;;11.73;6.00;;;23.70;94.30;;;;;;5035716;28;20418;-48
2022/07/14 07:49:55;;;;;;;12.93;5.07;;;23.90;94.30;;;;;;5045417;28;20408;-47
2022/07/14 07:52:22;;;;;;;10.38;4.63;;;24.00;94.30;;;;;;5044949;28;20407;-48
2022/07/14 07:54:52;;;;;;;6.68;3.78;;;24.20;94.40;;;;;;5046077;28;21353;-48
2022/07/14 07:57:39;;;;;;;11.83;5.03;;;24.30;94.40;;;;;;5031236;28;20393;-48
2022/07/14 08:00:10;;;;;;;10.13;4.07;;;24.40;94.30;;;;;;5039053;28;20489;-47
2022/07/14 08:02:46;;;;;;;7.78;2.85;;;24.50;94.20;;;;;;5066477;28;20772;-48
2022/07/14 08:05:15;;;;;;;10.85;3.63;;;24.50;94.10;;;;;;5049814;28;20403;-48
2022/07/14 08:08:07;;;;;;;8.05;2.88;;;24.60;94.20;;;;;;5046405;28;20406;-48
2022/07/14 08:10:36;;;;;;;7.65;3.30;;;24.60;94.00;;;;;;5035062;28;20393;-48
2022/07/14 08:13:06;;;;;;;23.37;14.73;;;24.70;93.80;;;;;;5025797;28;20437;-47
2022/07/14 08:15:37;;;;;;;11.65;6.05;;;24.70;93.60;;;;;;5046691;28;20399;-47
2022/07/14 08:18:07;;;;;;;16.58;8.40;;;24.70;93.30;;;;;;5045409;28;20930;-47
2022/07/14 08:20:37;;;;;;;9.45;5.00;;;24.60;93.20;;;;;;5045282;28;20763;-47
2022/07/14 08:23:04;;;;;;;10.82;5.90;;;24.60;93.00;;;;;;5035179;28;20413;-49
2022/07/14 08:25:33;;;;;;;7.53;3.88;;;24.60;93.10;;;;;;5026138;28;20393;-47
2022/07/14 08:28:00;;;;;;;7.17;2.77;;;24.60;93.20;;;;;;5025791;28;20914;-48
2022/07/14 08:30:32;;;;;;;6.93;2.63;;;24.60;93.10;;;;;;5029046;28;20406;-48
2022/07/14 08:33:02;;;;;;;7.20;2.72;;;24.70;93.10;;;;;;5041540;28;20924;-49
2022/07/14 08:35:34;;;;;;;5.75;2.60;;;24.70;93.00;;;;;;5026709;28;20387;-48
2022/07/14 08:38:03;;;;;;;7.43;2.53;;;24.70;93.00;;;;;;5026032;28;20967;-48
2022/07/14 08:40:38;;;;;;;6.82;2.40;;;24.70;93.30;;;;;;5026721;28;21005;-49
2022/07/14 08:43:08;;;;;;;5.20;2.30;;;24.80;92.90;;;;;;5026603;28;20401;-49
2022/07/14 08:45:41;;;;;;;6.60;2.53;;;24.80;92.70;;;;;;5009543;28;20396;-49
2022/07/14 08:48:09;;;;;;;7.30;3.17;;;24.80;92.70;;;;;;5037689;28;20873;-48
2022/07/14 08:50:39;;;;;;;10.05;3.33;;;24.90;92.70;;;;;;5026502;28;20948;-48
2022/07/14 08:53:09;;;;;;;9.98;4.63;;;24.90;92.60;;;;;;5025905;28;20489;-48
2022/07/14 08:55:36;;;;;;;11.10;5.30;;;24.90;92.70;;;;;;5026025;28;20397;-48
2022/07/14 08:58:03;;;;;;;8.93;3.90;;;24.90;92.70;;;;;;5026321;28;21014;-47
2022/07/14 09:00:32;;;;;;;10.40;4.00;;;25.00;92.70;;;;;;5044761;28;20429;-48
2022/07/14 09:03:00;;;;;;;6.28;2.90;;;25.00;92.60;;;;;;5032604;28;20478;-47
2022/07/14 09:05:48;;;;;;;6.63;2.22;;;25.10;92.50;;;;;;5030500;28;20393;-48
2022/07/14 09:08:17;;;;;;;6.60;2.28;;;25.20;92.50;;;;;;5027963;28;20942;-47
2022/07/14 09:10:47;;;;;;;9.23;2.17;;;25.20;92.40;;;;;;5029641;28;20400;-47
2022/07/14 09:13:33;;;;;;;5.60;2.13;;;25.30;92.50;;;;;;5029562;28;20763;-47
2022/07/14 09:16:23;;;;;;;7.75;2.35;;;25.40;92.60;;;;;;5029378;28;20397;-47
2022/07/14 09:19:03;;;;;;;5.25;2.40;;;25.50;92.50;;;;;;5039447;28;20205;-47
2022/07/14 09:21:30;;;;;;;7.03;2.10;;;25.30;92.60;;;;;;5045715;28;20295;-47
2022/07/14 09:23:58;;;;;;;8.43;2.67;;;25.20;92.70;;;;;;5043590;28;20494;-48
2022/07/14 09:26:27;;;;;;;7.35;2.38;;;25.20;92.80;;;;;;5047944;28;20390;-48
2022/07/14 09:28:55;;;;;;;11.10;2.95;;;25.30;92.70;;;;;;5049906;28;20396;-49
2022/07/14 09:31:30;;;;;;;5.40;2.20;;;25.40;92.70;;;;;;5049126;28;20399;-49
2022/07/14 09:34:05;;;;;;;6.73;2.50;;;25.60;92.70;;;;;;5049551;28;20403;-51
2022/07/14 09:36:36;;;;;;;6.93;2.78;;;25.70;92.50;;;;;;5048922;28;20812;-49
2022/07/14 09:39:04;;;;;;;8.95;2.55;;;25.80;92.50;;;;;;5039705;28;20382;-48
2022/07/14 09:41:47;;;;;;;7.35;2.30;;;25.90;92.60;;;;;;5032282;28;20749;-50
2022/07/14 09:44:21;;;;;;;9.15;2.65;;;26.00;92.70;;;;;;5032859;28;20385;-49
2022/07/14 09:46:58;;;;;;;7.97;2.63;;;26.10;92.60;;;;;;5032657;28;20401;-48
2022/07/14 09:49:30;;;;;;;6.13;2.53;;;26.10;92.40;;;;;;5031659;28;20389;-48
2022/07/14 09:52:04;;;;;;;7.22;2.80;;;26.20;92.50;;;;;;5048163;28;20489;-48
2022/07/14 09:54:37;;;;;;;7.27;2.17;;;26.20;92.50;;;;;;5048571;28;20398;-48
2022/07/14 09:57:08;;;;;;;6.90;2.30;;;26.30;92.50;;;;;;5036128;28;20578;-49
2022/07/14 09:59:48;;;;;;;6.65;2.25;;;26.40;92.40;;;;;;5039236;28;20919;-49
2022/07/14 10:02:27;;;;;;;6.32;2.30;;;26.40;92.30;;;;;;5068554;28;20398;-49
2022/07/14 10:05:01;;;;;;;8.05;2.40;;;26.50;92.20;;;;;;5042613;28;20424;-49
2022/07/14 10:07:38;;;;;;;8.00;2.08;;;26.50;92.10;;;;;;5028245;28;20896;-49
2022/07/14 10:10:10;;;;;;;3.80;1.67;;;26.50;92.00;;;;;;5028731;28;20435;-49
2022/07/14 10:12:41;;;;;;;5.80;1.85;;;26.50;91.80;;;;;;5031756;28;20467;-49
2022/07/14 10:15:12;;;;;;;6.35;2.22;;;26.40;91.30;;;;;;5048452;28;20874;-49
2022/07/14 10:17:45;;;;;;;5.07;1.87;;;26.40;91.20;;;;;;5047815;28;20399;-49
2022/07/14 10:20:19;;;;;;;4.00;1.50;;;26.30;91.20;;;;;;5048854;28;20472;-49
2022/07/14 10:22:50;;;;;;;4.65;1.50;;;26.30;91.20;;;;;;5048407;28;20392;-49
2022/07/14 10:25:18;;;;;;;3.30;1.35;;;26.20;90.90;;;;;;5048405;28;20471;-48
2022/07/14 10:27:48;;;;;;;4.10;1.50;;;26.20;90.60;;;;;;5046074;28;20486;-49
2022/07/14 10:30:16;;;;;;;4.30;1.30;;;26.20;90.60;;;;;;5037167;28;20397;-50
2022/07/14 10:33:29;;;;;;;4.78;1.70;;;26.20;90.60;;;;;;5027754;28;20493;-49
2022/07/14 10:36:06;;;;;;;3.63;1.40;;;26.20;90.60;;;;;;5028605;28;20417;-48
2022/07/14 10:39:02;;;;;;;4.28;1.40;;;26.20;90.40;;;;;;5026269;28;20394;-48
2022/07/14 10:41:54;;;;;;;4.30;1.53;;;26.20;90.40;;;;;;5028438;28;20834;-49
2022/07/14 10:44:24;;;;;;;6.20;1.90;;;26.20;90.30;;;;;;5028666;28;20892;-49
2022/07/14 10:47:08;;;;;;;5.75;1.60;;;26.30;90.20;;;;;;5034897;28;20419;-49
2022/07/14 10:50:08;;;;;;;7.88;2.10;;;26.20;90.00;;;;;;5047482;28;20411;-49
2022/07/14 10:52:38;;;;;;;4.25;1.60;;;26.30;90.00;;;;;;5047913;28;20906;-50
2022/07/14 10:55:24;;;;;;;6.10;1.70;;;26.30;90.10;;;;;;5045905;28;20395;-49
2022/07/14 10:58:06;;;;;;;4.73;1.80;;;26.40;90.10;;;;;;5046000;28;20420;-49
2022/07/14 11:00:47;;;;;;;4.60;1.55;;;26.40;90.00;;;;;;5042934;28;20447;-48
2022/07/14 11:03:26;;;;;;;4.40;1.67;;;26.40;89.60;;;;;;5026784;28;20461;-49
2022/07/14 11:06:03;;;;;;;4.40;1.45;;;26.40;89.60;;;;;;5027355;28;20922;-49
2022/07/14 11:09:15;;;;;;;4.78;1.50;;;26.50;89.80;;;;;;5037485;28;20403;-50
2022/07/14 11:12:14;;;;;;;4.50;1.42;;;26.50;88.80;;;;;;5027142;28;20487;-49
2022/07/14 11:14:44;;;;;;;3.50;1.20;;;26.50;88.20;;;;;;5027341;28;20435;-48
2022/07/14 11:17:35;;;;;;;5.00;1.95;;;26.60;88.50;;;;;;5029011;28;20902;-51
2022/07/14 11:20:05;;;;;;;6.50;1.85;;;26.60;87.70;;;;;;5046299;28;20483;-48
2022/07/14 11:22:34;;;;;;;8.48;1.85;;;26.70;88.40;;;;;;5026793;28;20405;-48
2022/07/14 11:25:03;;;;;;;5.25;1.48;;;26.70;88.80;;;;;;5026600;28;20750;-49
2022/07/14 11:27:39;;;;;;;3.63;1.40;;;26.80;88.70;;;;;;5027287;28;20400;-49
2022/07/14 11:30:35;;;;;;;7.53;2.37;;;26.90;88.70;;;;;;5025751;28;20982;-49
2022/07/14 11:33:10;;;;;;;5.97;1.50;;;26.90;88.30;;;;;;5024763;28;20417;-50
2022/07/14 11:39:16;;;;;;;6.68;1.77;;;27.00;87.40;;;;;;5042652;28;20407;-50
2022/07/14 11:41:48;;;;;;;6.28;1.85;;;27.00;87.30;;;;;;5047127;28;20398;-50
2022/07/14 11:44:38;;;;;;;4.07;1.80;;;27.00;87.50;;;;;;5047319;28;20547;-50
2022/07/14 11:47:30;;;;;;;4.78;1.60;;;27.00;87.70;;;;;;5046511;28;20490;-50
2022/07/14 11:49:59;;;;;;;5.00;1.40;;;27.10;87.30;;;;;;5047133;28;20457;-49
2022/07/14 11:52:40;;;;;;;2.88;1.30;;;27.10;87.20;;;;;;5045769;28;20948;-49
2022/07/14 11:55:12;;;;;;;5.40;1.50;;;27.20;87.50;;;;;;5045449;28;20406;-50
2022/07/14 11:57:51;;;;;;;3.67;1.60;;;27.20;87.00;;;;;;5045008;28;20495;-50
2022/07/14 12:00:19;;;;;;;3.08;1.38;;;27.20;85.70;;;;;;5055133;28;20409;-49
2022/07/14 12:02:52;;;;;;;5.73;1.80;;;27.20;85.60;;;;;;5066300;28;20405;-49
2022/07/14 12:05:24;;;;;;;3.00;1.20;;;27.20;85.60;;;;;;5026712;28;20404;-49
2022/07/14 12:07:56;;;;;;;6.40;1.85;;;27.20;85.20;;;;;;5025363;28;20390;-51
2022/07/14 12:10:41;;;;;;;5.97;2.00;;;27.20;85.40;;;;;;5027119;28;20398;-49
2022/07/14 12:13:09;;;;;;;10.27;2.20;;;27.30;85.00;;;;;;5042373;28;20407;-49
2022/07/14 12:15:38;;;;;;;4.05;1.35;;;27.20;84.50;;;;;;5035322;28;20404;-49
2022/07/14 12:18:06;;;;;;;3.53;1.33;;;27.20;84.60;;;;;;5044778;28;20474;-50
2022/07/14 12:20:46;;;;;;;9.13;2.17;;;27.30;85.10;;;;;;5047110;28;20403;-50
2022/07/14 12:23:17;;;;;;;5.65;1.50;;;27.30;83.90;;;;;;5045918;28;20402;-50
2022/07/14 12:25:46;;;;;;;3.90;1.38;;;27.30;84.50;;;;;;5038481;28;20586;-48
2022/07/14 12:28:21;;;;;;;4.68;1.70;;;27.40;84.40;;;;;;5027127;28;20427;-48
2022/07/14 12:30:55;;;;;;;8.43;1.95;;;27.40;84.80;;;;;;5045154;28;20901;-48
2022/07/14 12:33:32;;;;;;;3.78;1.40;;;27.50;84.50;;;;;;5044135;28;20463;-48
2022/07/14 12:36:01;;;;;;;3.73;1.33;;;27.50;84.40;;;;;;5047963;28;20387;-49
2022/07/14 12:38:34;;;;;;;2.83;1.40;;;27.60;84.40;;;;;;5049529;28;20407;-48
2022/07/14 12:41:03;;;;;;;3.53;1.60;;;27.70;84.60;;;;;;5048926;28;20410;-48
2022/07/14 12:43:36;;;;;;;5.15;1.50;;;27.80;84.10;;;;;;5049104;28;20384;-48
2022/07/14 12:46:10;;;;;;;3.65;1.30;;;27.80;84.40;;;;;;5041109;28;20417;-49
2022/07/14 12:48:53;;;;;;;3.88;1.35;;;27.80;84.40;;;;;;5030057;28;20492;-48
2022/07/14 12:51:33;;;;;;;3.30;1.50;;;27.90;84.60;;;;;;5030344;28;20424;-48
2022/07/14 12:54:31;;;;;;;2.60;1.27;;;27.90;84.60;;;;;;5028202;28;20404;-48
2022/07/14 12:57:22;;;;;;;4.25;1.45;;;28.00;84.80;;;;;;5042198;28;20481;-49
2022/07/14 12:59:50;;;;;;;7.10;2.17;;;28.10;85.00;;;;;;5051457;28;20402;-48
2022/07/14 13:02:22;;;;;;;4.40;1.70;;;28.10;84.70;;;;;;5063825;28;20394;-48
2022/07/14 13:05:01;;;;;;;5.53;1.73;;;28.20;84.40;;;;;;5049473;28;20404;-48
2022/07/14 13:07:32;;;;;;;4.18;1.70;;;28.20;84.50;;;;;;5049493;28;20482;-48
2022/07/14 13:10:10;;;;;;;5.05;1.95;;;28.30;84.90;;;;;;5042396;28;20979;-51
2022/07/14 13:12:42;;;;;;;3.90;1.55;;;28.40;84.00;;;;;;5029528;28;20405;-51
2022/07/14 13:15:16;;;;;;;3.97;1.48;;;28.40;84.30;;;;;;5028197;28;20405;-49
2022/07/14 13:18:05;;;;;;;5.75;1.58;;;28.40;84.40;;;;;;5028769;28;20393;-50
2022/07/14 13:20:49;;;;;;;3.90;1.50;;;28.40;84.00;;;;;;5042680;28;20906;-50
2022/07/14 13:23:25;;;;;;;3.63;1.47;;;28.40;83.50;;;;;;5048500;28;20423;-50
2022/07/14 13:26:11;;;;;;;5.03;1.50;;;28.40;83.10;;;;;;5041285;28;20904;-51